Decoded Metar for KLLJ (CHALLIS in ID, USA) (IATA:LLJ) | Meteo·Mobile Aviation Weather
aviador You're here:

KLLJ Decoded Metar

CHALLIS in ID, USA
Report Time2019-01-23 06:55:00
UTC Time2019-01-23 07:51:43
Flight Rules vfr VFR
WindCalm
Visibility9999 m
Phenomena:N/A
Clouds:Overcast 055 Hf
Expected CloudBase > 2,800 ft AGL from Temp-Dew spread
Ceiling5,500 ft
Temp-4°C (ISA -9)
Dew Point-11°C (59% RH)
AAT-7.1°C
QNH1023 hPa
Density Alt3,655 ft
Elevation5,039 ft
Report Wrong Elevation
Raw Report
KLLJ 230655Z AUTO 00000KT 10SM OVC055 M04/M11 A3022 RMK AO2 SLP277
T10441106 410331156=

Extra information for KLLJ:More info

Metar Taf Metar & Taf Last 4 Metars F.Rules Stats Wind Profile Meteogram Temp Stats Airport Information Weather charts Add Link Nearby VenuesMetar ALERT Operation Metar Decoded Social comments

AIRNAV info for KLLJ